Aviation Digital Data Service (ADDS)

Output produced by METARs form (0624 UTC 23 February 2019)
found at http://www.aviationweather.gov/metar/data/
 
OJAQ 230600Z 36004KT CAVOK 13/06 Q1019 NOSIG
TAF OJAQ 230448Z 2306/2412 36008KT 7000 FEW040
       
OJAM 230600Z 00000KT 3000 HZ NSC 07/04 Q1018 NOSIG
TAF OJAM 230448Z 2306/2412 28006KT 5000 HZ FEW030 
     PROB30 2306/2307 VRB02KT 1500 BR
       
OJAI 230600Z 00000KT 0600 FG VV/// 03/03 Q1019 NOSIG
TAF OJAI 230448Z 2306/2412 VRB02KT 3000 BR FEW030 
     BECMG 2308/2310 27006KT 5000 HZ